Nova Cantu, Brazil
Current Conditions -  °F | °C
As of 5:00 PM on Friday 21 Nov 2014 (Local Time) from SBGU Reporting Station
Broken Clouds Broken Clouds  
Wind Chill: 72°   Ceiling: 5000
Heat Index: 72°   Visibility: 6mi
Dew Point: 64°   Wind: 7mph
Humidity: 78%   Direction: 290°WNW
Pressure: 29.97"   Gusts: NA
Location:  24.67°S, 52.57°W
Report Text: SBGU 211900Z 29006KT 9999 SCT040 BKN050 22/18 Q1015
Loading
Personal Weather Stations






























Interactive Weather Map New forecast layout! Learn more

10-Day Weather Forecast

Advertisements
Track Severe Weather on mobile